createdAt,value
2017-08-11T00:00:15.206Z,3.83
2017-08-11T00:02:41.542Z,3.67
2017-08-11T00:05:07.843Z,3.33
2017-08-11T00:07:34.171Z,3.20
2017-08-11T00:10:01.212Z,3.08
2017-08-11T00:12:27.568Z,3.05
2017-08-11T00:14:53.872Z,3.15
2017-08-11T00:17:20.939Z,3.92
2017-08-11T00:19:47.240Z,2.80
2017-08-11T00:22:13.547Z,3.50
2017-08-11T00:24:39.868Z,3.42
2017-08-11T00:27:06.192Z,3.65
2017-08-11T00:29:32.584Z,2.80
2017-08-11T00:31:59.611Z,3.78
2017-08-11T00:34:25.940Z,3.35
2017-08-11T00:36:53.019Z,3.25
2017-08-11T00:39:19.335Z,3.67
2017-08-11T00:41:46.391Z,4.50
2017-08-11T00:44:12.707Z,5.15
2017-08-11T00:46:39.764Z,6.05
2017-08-11T00:49:06.081Z,3.97
2017-08-11T00:51:33.120Z,4.70
2017-08-11T00:54:00.196Z,4.30
2017-08-11T00:56:26.496Z,4.90
2017-08-11T00:58:52.834Z,4.53
2017-08-11T01:01:19.199Z,4.70
2017-08-11T01:03:45.489Z,4.65
2017-08-11T01:06:11.808Z,5.15
2017-08-11T01:08:38.115Z,5.05
2017-08-11T01:11:04.476Z,4.90
2017-08-11T01:13:31.544Z,4.60
2017-08-11T01:15:58.569Z,5.50
2017-08-11T01:18:24.891Z,4.72
2017-08-11T01:20:51.203Z,5.28
2017-08-11T01:23:17.539Z,5.55
2017-08-11T01:25:43.832Z,7.65
2017-08-11T01:28:10.172Z,6.70
2017-08-11T01:30:36.495Z,6.03
2017-08-11T01:33:02.875Z,5.10
2017-08-11T01:35:29.994Z,4.75
2017-08-11T01:37:56.360Z,4.15
2017-08-11T01:40:22.684Z,4.97
2017-08-11T01:42:49.036Z,4.15
2017-08-11T01:45:15.375Z,3.50
2017-08-11T01:47:41.711Z,4.12
2017-08-11T01:50:08.104Z,4.20
2017-08-11T01:52:34.446Z,4.85
2017-08-11T01:55:00.807Z,4.60
2017-08-11T01:57:27.168Z,5.10
2017-08-11T01:59:53.538Z,5.80
2017-08-11T02:02:20.584Z,4.75
2017-08-11T02:04:47.696Z,5.57
2017-08-11T02:07:14.063Z,6.18
2017-08-11T02:09:40.422Z,5.20
2017-08-11T02:12:06.755Z,6.00
2017-08-11T02:14:33.108Z,6.53
2017-08-11T02:16:59.407Z,6.60
2017-08-11T02:19:26.464Z,7.18
2017-08-11T02:21:52.784Z,7.20
2017-08-11T02:24:19.119Z,6.80
2017-08-11T02:26:45.424Z,6.95
2017-08-11T02:29:11.780Z,7.03
2017-08-11T02:31:38.423Z,7.35
2017-08-11T02:34:04.753Z,7.18
2017-08-11T02:36:31.052Z,9.80
2017-08-11T02:38:58.166Z,8.25
2017-08-11T02:41:24.487Z,7.05
2017-08-11T02:43:50.827Z,8.07
2017-08-11T02:46:17.160Z,8.05
2017-08-11T02:48:43.468Z,10.27
2017-08-11T02:51:09.803Z,10.50
2017-08-11T02:53:36.148Z,9.55
2017-08-11T02:56:02.556Z,9.18
2017-08-11T02:58:28.859Z,10.32
2017-08-11T03:00:55.965Z,9.75
2017-08-11T03:03:22.304Z,10.38
2017-08-11T03:05:48.596Z,11.10
2017-08-11T03:08:14.875Z,10.52
2017-08-11T03:10:41.211Z,10.45
2017-08-11T03:13:07.499Z,10.75
2017-08-11T03:15:33.795Z,10.30
2017-08-11T03:18:00.112Z,9.00
2017-08-11T03:20:26.479Z,10.75
2017-08-11T03:22:53.324Z,11.23
2017-08-11T03:25:19.603Z,11.00
2017-08-11T03:27:46.673Z,13.60
2017-08-11T03:30:13.026Z,11.40
2017-08-11T03:32:40.036Z,12.90
2017-08-11T03:35:07.065Z,12.52
2017-08-11T03:37:33.372Z,11.32
2017-08-11T03:39:59.708Z,13.40
2017-08-11T03:42:26.007Z,12.73
2017-08-11T03:44:52.294Z,13.68
2017-08-11T03:47:18.599Z,12.55
2017-08-11T03:49:44.922Z,12.55
2017-08-11T03:52:11.203Z,13.05
2017-08-11T03:54:38.271Z,13.65
2017-08-11T03:57:04.627Z,12.65
2017-08-11T03:59:30.949Z,12.77
2017-08-11T04:01:57.270Z,12.65
2017-08-11T04:04:24.284Z,12.60
2017-08-11T04:06:50.607Z,12.48
2017-08-11T04:09:16.890Z,13.30
2017-08-11T04:11:43.144Z,11.93
2017-08-11T04:14:09.487Z,12.90
2017-08-11T04:16:35.745Z,12.80
2017-08-11T04:19:02.017Z,14.25
2017-08-11T04:21:28.263Z,14.65
2017-08-11T04:23:54.535Z,13.25
2017-08-11T04:26:20.776Z,13.65
2017-08-11T04:28:47.891Z,13.90
2017-08-11T04:31:14.142Z,12.93
2017-08-11T04:33:40.420Z,13.93
2017-08-11T04:36:06.711Z,14.60
2017-08-11T04:38:33.719Z,14.30
2017-08-11T04:41:00.010Z,15.90
2017-08-11T04:43:26.262Z,17.52
2017-08-11T04:45:52.536Z,14.30
2017-08-11T04:48:19.556Z,15.30
2017-08-11T04:50:45.855Z,13.57
2017-08-11T04:53:12.431Z,14.25
2017-08-11T04:55:46.851Z,16.15
2017-08-11T04:58:13.132Z,17.25
2017-08-11T05:00:39.387Z,12.93
2017-08-11T05:03:05.697Z,16.08
2017-08-11T05:05:31.964Z,14.48
2017-08-11T05:07:58.228Z,15.88
2017-08-11T05:10:25.296Z,16.83
2017-08-11T05:12:51.562Z,13.95
2017-08-11T05:15:17.816Z,14.90
2017-08-11T05:17:44.081Z,15.43
2017-08-11T05:20:10.327Z,21.45
2017-08-11T05:22:37.016Z,22.83
2017-08-11T05:25:03.271Z,14.57
2017-08-11T05:27:29.520Z,11.40
2017-08-11T05:29:55.887Z,12.30
2017-08-11T05:32:22.153Z,11.80
2017-08-11T05:34:48.448Z,13.73
2017-08-11T05:37:14.725Z,12.88
2017-08-11T05:39:41.008Z,14.38
2017-08-11T05:42:07.324Z,14.82
2017-08-11T05:44:33.592Z,12.07
2017-08-11T05:47:00.647Z,11.98
2017-08-11T05:49:27.001Z,9.77
2017-08-11T05:51:53.271Z,9.00
2017-08-11T05:54:19.544Z,9.82
2017-08-11T05:56:45.877Z,11.65
2017-08-11T05:59:12.131Z,12.23
2017-08-11T06:01:38.413Z,9.63
2017-08-11T06:04:05.420Z,7.57
2017-08-11T06:06:31.711Z,8.20
2017-08-11T06:08:58.138Z,11.70
2017-08-11T06:11:24.488Z,9.43
2017-08-11T06:13:50.744Z,9.73
2017-08-11T06:16:17.096Z,9.10
2017-08-11T06:18:43.371Z,9.35
2017-08-11T06:21:09.623Z,9.68
2017-08-11T06:23:35.911Z,11.25
2017-08-11T06:26:02.160Z,9.48
2017-08-11T06:28:28.507Z,9.30
2017-08-11T06:30:54.759Z,9.63
2017-08-11T06:33:21.021Z,9.25
2017-08-11T06:35:47.315Z,10.32
2017-08-11T06:38:13.672Z,9.10
2017-08-11T06:40:39.927Z,8.02
2017-08-11T06:43:06.204Z,7.60
2017-08-11T06:45:32.460Z,6.75
2017-08-11T06:47:59.463Z,6.80
2017-08-11T06:50:25.767Z,6.90
2017-08-11T06:52:52.045Z,7.00
2017-08-11T06:55:18.301Z,7.30
2017-08-11T06:57:44.596Z,7.60
2017-08-11T07:00:10.888Z,7.47
2017-08-11T07:02:37.152Z,6.70
2017-08-11T07:05:03.457Z,6.25
2017-08-11T07:07:29.720Z,6.55
2017-08-11T07:09:56.019Z,6.97
2017-08-11T07:12:22.319Z,6.78
2017-08-11T07:14:48.572Z,5.53
2017-08-11T07:17:14.831Z,6.35
2017-08-11T07:19:41.115Z,6.05
2017-08-11T07:22:07.371Z,6.07
2017-08-11T07:24:33.666Z,5.75
2017-08-11T07:26:59.996Z,5.18
2017-08-11T07:29:26.272Z,6.32
2017-08-11T07:31:52.545Z,5.95
2017-08-11T07:34:18.823Z,6.15
2017-08-11T07:36:45.117Z,5.12
2017-08-11T07:39:11.468Z,5.32
2017-08-11T07:41:37.769Z,7.05
2017-08-11T07:44:04.040Z,4.90
2017-08-11T07:46:30.301Z,5.93
2017-08-11T07:48:57.352Z,5.43
2017-08-11T07:51:24.356Z,5.95
2017-08-11T07:53:50.635Z,5.15
2017-08-11T07:56:16.927Z,5.55
2017-08-11T07:58:43.184Z,5.75
2017-08-11T08:01:09.487Z,5.85
2017-08-11T08:03:35.781Z,5.45
2017-08-11T08:06:02.046Z,5.20
2017-08-11T08:08:28.349Z,5.32
2017-08-11T08:10:54.663Z,5.62
2017-08-11T08:13:20.935Z,6.28
2017-08-11T08:15:47.291Z,5.80
2017-08-11T08:18:14.308Z,6.57
2017-08-11T08:20:40.567Z,6.03
2017-08-11T08:23:07.608Z,5.60
2017-08-11T08:25:34.680Z,5.85
2017-08-11T08:28:00.952Z,6.20
2017-08-11T08:30:27.247Z,6.97
2017-08-11T08:32:53.501Z,5.80
2017-08-11T08:35:19.787Z,6.10
2017-08-11T08:37:46.051Z,6.30
2017-08-11T08:40:12.301Z,6.00
2017-08-11T08:42:38.547Z,5.57
2017-08-11T08:45:04.829Z,7.70
2017-08-11T08:47:31.067Z,6.05
2017-08-11T08:49:57.357Z,6.07
2017-08-11T08:52:23.674Z,5.75
2017-08-11T08:54:50.667Z,5.40
2017-08-11T08:57:16.963Z,5.65
2017-08-11T08:59:43.231Z,5.70
2017-08-11T09:02:09.506Z,5.93
2017-08-11T09:04:36.510Z,5.50
2017-08-11T09:07:02.802Z,4.65
2017-08-11T09:09:29.051Z,5.40
2017-08-11T09:11:55.372Z,4.93
2017-08-11T09:14:21.660Z,5.15
2017-08-11T09:16:47.998Z,7.12
2017-08-11T09:19:14.997Z,5.25
2017-08-11T09:21:41.283Z,5.97
2017-08-11T09:24:08.316Z,4.65
2017-08-11T09:26:56.495Z,4.65
2017-08-11T09:29:35.022Z,4.70
2017-08-11T09:32:28.424Z,5.28
2017-08-11T09:35:07.028Z,5.22
2017-08-11T09:37:33.336Z,6.12
2017-08-11T09:39:59.634Z,3.87
2017-08-11T09:42:25.989Z,4.60
2017-08-11T09:44:53.112Z,4.55
2017-08-11T09:47:19.411Z,4.30
2017-08-11T09:49:45.754Z,5.10
2017-08-11T09:52:12.139Z,4.30
2017-08-11T09:54:38.435Z,14.73
2017-08-11T09:57:04.770Z,13.50
2017-08-11T09:59:31.091Z,4.93
2017-08-11T10:01:57.413Z,4.40
2017-08-11T10:04:23.753Z,5.12
2017-08-11T10:06:50.128Z,5.07
2017-08-11T10:09:18.164Z,5.07
2017-08-11T10:11:44.503Z,5.07
2017-08-11T10:14:10.865Z,4.68
2017-08-11T10:16:37.180Z,4.30
2017-08-11T10:19:03.464Z,4.22
2017-08-11T10:21:29.785Z,5.07
2017-08-11T10:23:56.075Z,4.70
2017-08-11T10:26:22.407Z,6.18
2017-08-11T10:28:49.465Z,5.10
2017-08-11T10:31:16.520Z,5.95
2017-08-11T10:33:42.880Z,5.20
2017-08-11T10:36:09.234Z,5.43
2017-08-11T10:38:35.532Z,5.25
2017-08-11T10:41:01.876Z,4.95
2017-08-11T10:43:28.204Z,5.30
2017-08-11T10:45:54.564Z,4.72
2017-08-11T10:48:20.855Z,4.93
2017-08-11T10:50:47.158Z,4.43
2017-08-11T10:53:14.226Z,5.43
2017-08-11T10:55:40.578Z,5.35
2017-08-11T10:58:06.933Z,5.40
2017-08-11T11:00:33.313Z,4.82
2017-08-11T11:02:59.631Z,5.00
2017-08-11T11:05:26.696Z,5.55
2017-08-11T11:07:53.063Z,5.10
2017-08-11T11:10:19.413Z,5.85
2017-08-11T11:12:45.719Z,8.07
2017-08-11T11:15:12.052Z,6.15
2017-08-11T11:17:38.403Z,6.55
2017-08-11T11:20:04.694Z,7.53
2017-08-11T11:22:31.037Z,6.75
2017-08-11T11:24:57.373Z,7.62
2017-08-11T11:27:23.753Z,7.35
2017-08-11T11:29:50.121Z,8.55
2017-08-11T11:32:17.174Z,9.10
2017-08-11T11:34:43.613Z,9.45
2017-08-11T11:37:09.956Z,8.93
2017-08-11T11:39:36.252Z,8.18
2017-08-11T11:42:02.647Z,8.75
2017-08-11T11:44:29.727Z,7.93
2017-08-11T11:46:56.040Z,9.65
2017-08-11T11:49:22.397Z,7.85
2017-08-11T11:51:48.704Z,8.32
2017-08-11T11:54:15.032Z,7.57
2017-08-11T11:56:41.424Z,8.35
2017-08-11T11:59:07.805Z,7.82
2017-08-11T12:01:34.170Z,8.15
2017-08-11T12:04:00.464Z,8.38
2017-08-11T12:06:26.791Z,8.02
2017-08-11T12:08:53.155Z,9.13
2017-08-11T12:11:19.486Z,8.80
2017-08-11T12:13:45.815Z,8.88
2017-08-11T12:16:12.416Z,8.63
2017-08-11T12:18:38.731Z,9.45
2017-08-11T12:21:05.767Z,8.60
2017-08-11T12:23:32.839Z,8.63
2017-08-11T12:25:59.168Z,9.45
2017-08-11T12:28:25.456Z,9.45
2017-08-11T12:30:51.779Z,9.52
2017-08-11T12:33:18.107Z,8.80
2017-08-11T12:35:44.407Z,8.05
2017-08-11T12:38:10.776Z,8.82
2017-08-11T12:40:37.092Z,8.82
2017-08-11T12:43:03.420Z,7.80
2017-08-11T12:45:29.752Z,8.63
2017-08-11T12:47:56.044Z,7.70
2017-08-11T12:50:22.387Z,7.80
2017-08-11T12:52:48.709Z,7.75
2017-08-11T12:55:15.052Z,7.30
2017-08-11T12:57:41.347Z,7.25
2017-08-11T13:00:07.659Z,7.12
2017-08-11T13:02:34.016Z,8.50
2017-08-11T13:05:00.317Z,7.80
2017-08-11T13:07:27.424Z,8.65
2017-08-11T13:09:53.729Z,8.10
2017-08-11T13:12:20.024Z,9.82
2017-08-11T13:14:46.345Z,10.80
2017-08-11T13:17:12.640Z,10.30
2017-08-11T13:19:38.969Z,11.95
2017-08-11T13:22:05.290Z,12.23
2017-08-11T13:24:31.611Z,13.15
2017-08-11T13:26:57.942Z,13.15
2017-08-11T13:29:24.239Z,13.60
2017-08-11T13:31:50.585Z,13.80
2017-08-11T13:34:16.896Z,15.38
2017-08-11T13:36:43.187Z,16.23
2017-08-11T13:39:09.562Z,14.65
2017-08-11T13:41:36.603Z,16.48
2017-08-11T13:44:02.955Z,18.52
2017-08-11T13:46:29.268Z,18.00
2017-08-11T13:48:56.310Z,16.10
2017-08-11T13:51:22.608Z,19.50
2017-08-11T13:53:48.920Z,18.77
2017-08-11T13:56:15.240Z,19.10
2017-08-11T13:58:41.559Z,17.48
2017-08-11T14:01:07.899Z,19.02
2017-08-11T14:03:35.028Z,19.00
2017-08-11T14:06:02.103Z,19.87
2017-08-11T14:08:28.472Z,19.45
2017-08-11T14:10:54.768Z,20.10
2017-08-11T14:13:21.192Z,21.35
2017-08-11T14:15:47.559Z,20.85
2017-08-11T14:18:13.951Z,21.27
2017-08-11T14:20:40.468Z,23.58
2017-08-11T14:23:06.829Z,21.42
2017-08-11T14:25:33.156Z,21.67
2017-08-11T14:27:59.484Z,24.12
2017-08-11T14:30:25.792Z,18.12
2017-08-11T14:32:52.124Z,22.08
2017-08-11T14:35:18.459Z,22.35
2017-08-11T14:37:44.818Z,21.62
2017-08-11T14:40:11.133Z,21.98
2017-08-11T14:42:37.987Z,21.40
2017-08-11T14:45:04.379Z,20.00
2017-08-11T14:47:31.427Z,20.30
2017-08-11T14:49:58.475Z,20.98
2017-08-11T14:52:25.559Z,18.85
2017-08-11T14:54:51.879Z,20.17
2017-08-11T14:57:18.176Z,19.20
2017-08-11T14:59:44.832Z,22.92
2017-08-11T15:02:11.939Z,20.62
2017-08-11T15:04:38.243Z,21.77
2017-08-11T15:07:04.592Z,19.10
2017-08-11T15:09:30.951Z,21.02
2017-08-11T15:11:58.003Z,25.40
2017-08-11T15:14:25.087Z,37.88
2017-08-11T15:16:51.507Z,23.50
2017-08-11T15:19:17.828Z,19.62
2017-08-11T15:21:44.892Z,20.17
2017-08-11T15:24:11.204Z,19.50
2017-08-11T15:26:37.516Z,20.70
2017-08-11T15:29:03.859Z,23.08
2017-08-11T15:31:30.167Z,20.98
2017-08-11T15:33:56.503Z,21.23
2017-08-11T15:36:22.807Z,21.40
2017-08-11T15:38:49.116Z,22.55
2017-08-11T15:41:15.461Z,17.45
2017-08-11T15:43:41.775Z,17.83
2017-08-11T15:46:08.085Z,19.73
2017-08-11T15:48:34.396Z,19.45
2017-08-11T15:51:01.468Z,19.35
2017-08-11T15:53:27.788Z,21.00
2017-08-11T15:55:54.111Z,20.77
2017-08-11T15:58:21.156Z,18.73
2017-08-11T16:00:47.496Z,19.45
2017-08-11T16:03:13.803Z,20.40
2017-08-11T16:05:40.839Z,19.67
2017-08-11T16:08:07.183Z,19.27
2017-08-11T16:10:34.275Z,20.27
2017-08-11T16:13:00.652Z,17.50
2017-08-11T16:15:27.736Z,18.40
2017-08-11T16:17:54.079Z,18.85
2017-08-11T16:20:20.417Z,19.75
2017-08-11T16:22:46.732Z,19.95
2017-08-11T16:25:13.059Z,19.15
2017-08-11T16:27:39.405Z,18.33
2017-08-11T16:30:05.736Z,19.37
2017-08-11T16:32:32.072Z,21.05
2017-08-11T16:34:58.363Z,19.40
2017-08-11T16:37:25.423Z,19.05
2017-08-11T16:39:51.779Z,20.00
2017-08-11T16:42:18.112Z,19.20
2017-08-11T16:44:44.437Z,19.12
2017-08-11T16:47:10.748Z,18.83
2017-08-11T16:49:37.114Z,16.62
2017-08-11T16:52:03.435Z,17.48
2017-08-11T16:54:29.763Z,18.75
2017-08-11T16:56:56.121Z,27.52
2017-08-11T16:59:22.420Z,18.95
2017-08-11T17:01:48.733Z,18.65
2017-08-11T17:04:15.055Z,18.42
2017-08-11T17:06:41.356Z,17.15
2017-08-11T17:09:07.671Z,18.70
2017-08-11T17:11:34.509Z,19.60
2017-08-11T17:14:00.815Z,17.62
2017-08-11T17:16:27.144Z,19.00
2017-08-11T17:18:53.526Z,20.23
2017-08-11T17:21:19.853Z,17.02
2017-08-11T17:23:46.899Z,17.05
2017-08-11T17:26:13.948Z,16.62
2017-08-11T17:28:41.040Z,17.60
2017-08-11T17:31:07.348Z,15.95
2017-08-11T17:33:33.646Z,19.20
2017-08-11T17:35:59.972Z,18.55
2017-08-11T17:38:26.283Z,17.60
2017-08-11T17:40:53.413Z,20.17
2017-08-11T17:43:19.760Z,17.00
2017-08-11T17:45:46.057Z,17.75
2017-08-11T17:48:12.394Z,17.62
2017-08-11T17:50:38.728Z,16.95
2017-08-11T17:53:05.047Z,19.02
2017-08-11T17:55:31.360Z,19.23
2017-08-11T17:57:57.667Z,18.85
2017-08-11T18:00:24.734Z,17.60
2017-08-11T18:02:51.081Z,18.10
2017-08-11T18:05:17.968Z,18.80
2017-08-11T18:07:44.296Z,17.52
2017-08-11T18:10:10.600Z,19.50
2017-08-11T18:12:36.951Z,18.30
2017-08-11T18:15:03.315Z,16.45
2017-08-11T18:17:30.383Z,16.70
2017-08-11T18:19:56.722Z,18.70
2017-08-11T18:22:23.065Z,27.40
2017-08-11T18:24:49.363Z,24.55
2017-08-11T18:27:16.476Z,30.40
2017-08-11T18:29:42.832Z,24.65
2017-08-11T18:32:09.888Z,23.95
2017-08-11T18:34:36.927Z,23.50
2017-08-11T18:37:04.003Z,21.15
2017-08-11T18:39:30.327Z,21.12
2017-08-11T18:41:56.652Z,20.45
2017-08-11T18:44:23.003Z,23.55
2017-08-11T18:46:49.299Z,21.85
2017-08-11T18:49:16.384Z,18.27
2017-08-11T18:51:42.703Z,19.25
2017-08-11T18:54:09.056Z,19.65
2017-08-11T18:56:35.340Z,16.12
2017-08-11T18:59:01.674Z,17.70
2017-08-11T19:01:28.729Z,14.02
2017-08-11T19:03:55.084Z,13.15
2017-08-11T19:06:21.508Z,11.98
2017-08-11T19:08:47.990Z,10.82
2017-08-11T19:11:14.463Z,12.27
2017-08-11T19:13:40.952Z,11.73
2017-08-11T19:16:08.107Z,11.77
2017-08-11T19:18:35.396Z,10.77
2017-08-11T19:21:02.013Z,10.77
2017-08-11T19:23:28.661Z,12.15
2017-08-11T19:25:55.232Z,13.77
2017-08-11T19:28:21.917Z,11.68
2017-08-11T19:30:48.571Z,10.10
2017-08-11T19:33:15.205Z,12.10
2017-08-11T19:35:41.854Z,11.45
2017-08-11T19:38:08.489Z,11.68
2017-08-11T19:40:35.140Z,12.25
2017-08-11T19:43:01.809Z,10.85
2017-08-11T19:45:29.189Z,11.77
2017-08-11T19:47:55.821Z,10.93
2017-08-11T19:50:22.519Z,13.38
2017-08-11T19:52:49.927Z,11.85
2017-08-11T19:55:16.542Z,12.63
2017-08-11T19:57:43.952Z,12.15
2017-08-11T20:00:10.687Z,10.45
2017-08-11T20:02:38.061Z,13.35
2017-08-11T20:05:04.695Z,12.57
2017-08-11T20:07:31.368Z,13.35
2017-08-11T20:09:58.039Z,11.93
2017-08-11T20:12:24.842Z,12.85
2017-08-11T20:14:51.500Z,13.50
2017-08-11T20:17:18.055Z,15.60
2017-08-11T20:19:44.675Z,12.25
2017-08-11T20:22:11.348Z,15.00
2017-08-11T20:24:37.884Z,13.93
2017-08-11T20:27:04.406Z,14.00
2017-08-11T20:29:30.789Z,14.70
2017-08-11T20:31:57.210Z,14.65
2017-08-11T20:34:23.561Z,13.02
2017-08-11T20:36:49.929Z,12.40
2017-08-11T20:39:17.041Z,13.45
2017-08-11T20:41:43.380Z,16.12
2017-08-11T20:44:09.711Z,14.43
2017-08-11T20:46:36.858Z,13.90
2017-08-11T20:49:03.199Z,13.13
2017-08-11T20:51:32.352Z,12.02
2017-08-11T20:53:58.683Z,17.35
2017-08-11T20:56:24.976Z,12.55
2017-08-11T20:58:51.309Z,11.82
2017-08-11T21:01:17.612Z,9.85
2017-08-11T21:03:43.970Z,10.10
2017-08-11T21:06:10.316Z,11.93
2017-08-11T21:08:36.700Z,13.15
2017-08-11T21:11:03.008Z,12.63
2017-08-11T21:13:29.319Z,13.15
2017-08-11T21:15:55.713Z,11.82
2017-08-11T21:18:22.855Z,11.43
2017-08-11T21:20:49.287Z,11.68
2017-08-11T21:23:15.669Z,11.77
2017-08-11T21:25:42.060Z,10.30
2017-08-11T21:28:08.445Z,12.30
2017-08-11T21:30:34.835Z,11.10
2017-08-11T21:33:01.233Z,9.90
2017-08-11T21:35:27.617Z,11.05
2017-08-11T21:37:54.038Z,9.60
2017-08-11T21:40:20.435Z,9.00
2017-08-11T21:42:46.840Z,8.45
2017-08-11T21:45:13.248Z,9.38
2017-08-11T21:47:39.644Z,9.07
2017-08-11T21:50:06.046Z,11.18
2017-08-11T21:52:32.432Z,10.10
2017-08-11T21:54:58.811Z,9.50
2017-08-11T21:57:25.187Z,11.27
2017-08-11T21:59:51.588Z,9.02
2017-08-11T22:02:18.704Z,8.85
2017-08-11T22:04:45.097Z,9.65
2017-08-11T22:07:11.474Z,9.50
2017-08-11T22:09:37.852Z,10.40
2017-08-11T22:12:04.365Z,11.23
2017-08-11T22:14:31.499Z,9.50
2017-08-11T22:16:57.913Z,9.90
2017-08-11T22:19:24.284Z,11.82
2017-08-11T22:21:51.391Z,11.38
2017-08-11T22:24:17.803Z,9.43
2017-08-11T22:26:44.164Z,11.05
2017-08-11T22:29:10.593Z,10.43
2017-08-11T22:31:36.980Z,11.95
2017-08-11T22:34:03.339Z,9.48
2017-08-11T22:36:29.752Z,9.45
2017-08-11T22:38:56.126Z,11.90
2017-08-11T22:41:22.492Z,10.15
2017-08-11T22:43:49.632Z,9.80
2017-08-11T22:46:16.013Z,10.68
2017-08-11T22:48:42.406Z,8.85
2017-08-11T22:51:08.800Z,11.25
2017-08-11T22:53:35.252Z,11.85
2017-08-11T22:56:01.669Z,9.23
2017-08-11T22:58:28.036Z,11.60
2017-08-11T23:00:55.154Z,10.23
2017-08-11T23:03:21.543Z,10.70
2017-08-11T23:05:47.940Z,10.45
2017-08-11T23:08:15.083Z,10.80
2017-08-11T23:10:41.470Z,10.93
2017-08-11T23:13:07.867Z,12.35
2017-08-11T23:15:35.272Z,13.07
2017-08-11T23:18:01.640Z,10.63
2017-08-11T23:20:28.728Z,10.10
2017-08-11T23:22:55.120Z,11.12
2017-08-11T23:25:22.234Z,9.18
2017-08-11T23:27:48.603Z,10.40
2017-08-11T23:30:15.028Z,10.90
2017-08-11T23:32:42.123Z,9.60
2017-08-11T23:35:08.468Z,10.70
2017-08-11T23:37:34.860Z,11.27
2017-08-11T23:40:01.275Z,8.45
2017-08-11T23:42:27.640Z,9.93
2017-08-11T23:44:54.040Z,10.50
2017-08-11T23:47:20.433Z,10.40
2017-08-11T23:49:46.799Z,10.77
2017-08-11T23:52:13.919Z,11.68
2017-08-11T23:54:40.315Z,9.60
2017-08-11T23:57:06.672Z,10.60
2017-08-11T23:59:33.047Z,13.45
